Time;durP1;ratioP1;P1;durP2;ratioP2;P2;SDS_P1;SDS_P2;PMS_P1;PMS_P2;Temp;Humidity;BMP_temperature;BMP_pressure;BME280_temperature;BME280_humidity;BME280_pressure;Samples;Min_cycle;Max_cycle;Signal;HPM_P1;HPM_P2
2022/10/16 00:00:18;;;;;;;6.47;4.40;;;;;;;11.95;100.00;100319.13;697219;28;912;-64
2022/10/16 00:00:40;;;;;;;6.93;4.37;;;;;;;11.96;100.00;100320.84;698720;28;4370;-64
2022/10/16 00:01:09;;;;;;;6.97;4.80;;;;;;;11.96;100.00;100315.63;700367;28;1205;-64
2022/10/16 00:01:30;;;;;;;7.47;4.70;;;;;;;11.96;100.00;100324.31;698899;28;1293;-64
2022/10/16 00:01:50;;;;;;;6.72;4.45;;;;;;;11.97;100.00;100318.19;699913;28;1008;-64
2022/10/16 00:02:11;;;;;;;6.10;4.20;;;;;;;11.97;100.00;100315.59;700012;28;1382;-64
2022/10/16 00:02:31;;;;;;;7.45;4.55;;;;;;;11.96;100.00;100320.84;697854;28;1094;-64
2022/10/16 00:02:51;;;;;;;8.17;4.67;;;;;;;11.96;100.00;100321.69;696112;28;951;-65
2022/10/16 00:03:12;;;;;;;7.43;4.78;;;;;;;11.97;100.00;100319.97;696776;28;1248;-64
2022/10/16 00:03:33;;;;;;;5.93;4.67;;;;;;;11.96;100.00;100320.84;697447;28;1095;-64
2022/10/16 00:03:54;;;;;;;7.05;4.60;;;;;;;11.96;100.00;100320.84;697385;28;4490;-64
2022/10/16 00:04:15;;;;;;;6.72;4.60;;;;;;;11.96;100.00;100320.84;695699;28;958;-64
2022/10/16 00:04:35;;;;;;;7.03;4.47;;;;;;;11.99;100.00;100326.03;696626;28;1091;-64
2022/10/16 00:04:55;;;;;;;8.97;4.60;;;;;;;11.97;100.00;100323.44;696272;28;1278;-64
2022/10/16 00:05:16;;;;;;;8.88;4.85;;;;;;;11.97;100.00;100320.81;698640;28;903;-64
2022/10/16 00:05:42;;;;;;;7.57;4.70;;;;;;;11.96;100.00;100315.63;698559;28;1898;-64
2022/10/16 00:06:03;;;;;;;7.00;4.75;;;;;;;11.95;100.00;100319.13;698878;28;1435;-64
2022/10/16 00:06:25;;;;;;;8.65;5.05;;;;;;;11.96;100.00;100319.09;697013;28;966;-64
2022/10/16 00:06:45;;;;;;;8.18;4.50;;;;;;;11.96;100.00;100320.84;697268;28;4457;-64
2022/10/16 00:07:05;;;;;;;7.50;4.68;;;;;;;11.96;100.00;100313.00;698079;28;1134;-64
2022/10/16 00:07:27;;;;;;;7.33;4.80;;;;;;;11.96;100.00;100318.22;696564;28;1101;-64
2022/10/16 00:07:47;;;;;;;6.60;4.80;;;;;;;11.93;100.00;100322.63;698267;28;1142;-64
2022/10/16 00:08:09;;;;;;;8.48;4.88;;;;;;;11.92;100.00;100323.50;696928;28;1118;-64
2022/10/16 00:08:30;;;;;;;8.20;4.82;;;;;;;11.90;100.00;100317.41;697562;28;1575;-64
2022/10/16 00:08:51;;;;;;;8.52;4.95;;;;;;;11.91;100.00;100324.38;696694;28;1087;-64
2022/10/16 00:09:12;;;;;;;7.90;4.80;;;;;;;11.91;100.00;100324.38;697374;28;1098;-64
2022/10/16 00:09:32;;;;;;;8.18;4.80;;;;;;;11.92;100.00;100327.84;697493;28;1203;-64
2022/10/16 00:09:53;;;;;;;7.82;5.15;;;;;;;11.91;100.00;100319.13;694980;28;4277;-64
2022/10/16 00:10:14;;;;;;;7.17;4.80;;;;;;;11.91;100.00;100321.75;697789;28;1088;-64
2022/10/16 00:10:35;;;;;;;7.55;4.70;;;;;;;11.93;100.00;100322.63;697401;28;940;-64
2022/10/16 00:11:10;;;;;;;7.60;4.60;;;;;;;11.91;100.00;100324.38;697479;28;914;-64
2022/10/16 00:11:36;;;;;;;7.78;4.57;;;;;;;11.89;100.00;100320.94;696676;28;1146;-64
2022/10/16 00:11:57;;;;;;;8.55;4.70;;;;;;;11.87;100.00;100317.44;698381;28;1062;-64
2022/10/16 00:12:17;;;;;;;7.33;5.10;;;;;;;11.89;100.00;100320.03;696607;28;1237;-64
2022/10/16 00:12:37;;;;;;;7.43;4.90;;;;;;;11.90;100.00;100322.63;696319;28;4529;-65
2022/10/16 00:12:58;;;;;;;7.72;4.70;;;;;;;11.90;100.00;100322.63;697275;28;1188;-64
2022/10/16 00:13:19;;;;;;;7.30;4.83;;;;;;;11.89;100.00;100320.03;695680;28;987;-64
2022/10/16 00:13:41;;;;;;;7.50;5.30;;;;;;;11.88;100.00;100318.31;698284;28;1110;-64
2022/10/16 00:14:05;;;;;;;7.88;5.30;;;;;;;11.87;100.00;100322.69;697807;28;1070;-64
2022/10/16 00:14:25;;;;;;;7.18;4.93;;;;;;;11.87;100.00;100319.22;697904;28;1058;-64
2022/10/16 00:14:45;;;;;;;7.10;4.63;;;;;;;11.86;100.00;100317.47;696898;28;1071;-64
2022/10/16 00:15:06;;;;;;;6.87;4.90;;;;;;;11.85;100.00;100323.59;697100;28;1087;-64
2022/10/16 00:15:27;;;;;;;6.68;5.20;;;;;;;11.84;100.00;100322.75;697420;28;1133;-64
2022/10/16 00:15:47;;;;;;;7.20;5.13;;;;;;;11.85;100.00;100327.09;695075;28;4293;-64
2022/10/16 00:16:09;;;;;;;6.93;5.20;;;;;;;11.85;100.00;100328.84;695433;28;1118;-65
2022/10/16 00:16:30;;;;;;;8.30;4.80;;;;;;;11.85;100.00;100334.06;697240;28;3641;-65
2022/10/16 00:16:51;;;;;;;8.68;5.07;;;;;;;11.83;100.00;100328.88;697459;28;1093;-64
2022/10/16 00:17:11;;;;;;;8.60;5.50;;;;;;;11.83;100.00;100336.72;694987;28;1223;-65
2022/10/16 00:17:33;;;;;;;8.50;5.70;;;;;;;11.83;100.00;100330.63;695393;28;1158;-64
2022/10/16 00:17:53;;;;;;;7.50;5.03;;;;;;;11.82;100.00;100340.22;697381;28;813;-64
2022/10/16 00:18:14;;;;;;;8.00;5.10;;;;;;;11.83;100.00;100341.09;697494;28;1113;-64
2022/10/16 00:18:36;;;;;;;6.82;5.13;;;;;;;11.82;100.00;100329.75;696424;28;1162;-64
2022/10/16 00:18:57;;;;;;;7.82;5.15;;;;;;;11.82;100.00;100342.00;696165;28;4255;-64
2022/10/16 00:19:17;;;;;;;8.25;5.13;;;;;;;11.81;100.00;100338.50;698074;28;1357;-64
2022/10/16 00:19:40;;;;;;;8.37;5.47;;;;;;;11.80;100.00;100336.78;697818;28;1146;-65
2022/10/16 00:20:00;;;;;;;9.85;5.35;;;;;;;11.83;100.00;100338.50;697214;28;1060;-64
2022/10/16 00:20:21;;;;;;;10.27;5.20;;;;;;;11.84;100.00;100335.84;697433;28;1066;-64
2022/10/16 00:20:41;;;;;;;9.60;5.10;;;;;;;11.83;100.00;100336.72;696649;28;1220;-64
2022/10/16 00:21:04;;;;;;;7.03;5.13;;;;;;;11.83;100.00;100341.09;697504;28;1051;-64
2022/10/16 00:21:28;;;;;;;7.97;5.57;;;;;;;11.83;100.00;100341.09;695351;28;1146;-64
2022/10/16 00:21:48;;;;;;;7.40;5.50;;;;;;;11.84;100.00;100345.47;694450;28;4392;-64
2022/10/16 00:22:09;;;;;;;8.80;5.43;;;;;;;11.83;100.00;100336.72;694922;28;1241;-63
2022/10/16 00:22:29;;;;;;;8.67;5.23;;;;;;;11.82;100.00;100342.00;695132;28;1135;-64
2022/10/16 00:22:49;;;;;;;7.05;5.22;;;;;;;11.82;100.00;100345.47;697562;28;1364;-64
2022/10/16 00:23:10;;;;;;;7.10;5.17;;;;;;;11.81;100.00;100341.13;696298;28;1400;-64
2022/10/16 00:23:31;;;;;;;8.20;5.40;;;;;;;11.83;100.00;100341.09;697394;28;1161;-64
2022/10/16 00:23:57;;;;;;;7.47;5.40;;;;;;;11.83;100.00;100347.19;697778;28;1112;-64
2022/10/16 00:24:17;;;;;;;7.47;5.45;;;;;;;11.85;100.00;100350.69;696336;28;903;-64
2022/10/16 00:24:37;;;;;;;8.90;5.50;;;;;;;11.85;100.00;100345.44;697010;28;4789;-64
2022/10/16 00:24:58;;;;;;;9.53;5.63;;;;;;;11.85;100.00;100348.06;697572;28;1031;-64
2022/10/16 00:25:18;;;;;;;8.73;5.80;;;;;;;11.86;100.00;100347.16;697002;28;1906;-65
2022/10/16 00:25:38;;;;;;;7.97;5.43;;;;;;;11.86;100.00;100347.16;695355;28;1111;-64
2022/10/16 00:26:02;;;;;;;8.30;5.28;;;;;;;11.87;100.00;100354.13;697670;28;1126;-63
2022/10/16 00:26:23;;;;;;;7.82;5.07;;;;;;;11.85;100.00;100349.78;696298;28;1169;-64
2022/10/16 00:26:43;;;;;;;8.43;5.47;;;;;;;11.84;100.00;100353.31;695920;28;1082;-64
2022/10/16 00:27:04;;;;;;;7.72;5.43;;;;;;;11.85;100.00;100358.53;697733;28;1321;-64
2022/10/16 00:27:24;;;;;;;8.80;5.63;;;;;;;11.84;100.00;100354.19;698044;28;1228;-64
2022/10/16 00:27:44;;;;;;;8.73;5.28;;;;;;;11.83;100.00;100351.59;697217;28;4523;-64
2022/10/16 00:28:05;;;;;;;9.70;5.40;;;;;;;11.82;100.00;100353.31;698245;28;876;-64
2022/10/16 00:28:26;;;;;;;8.53;5.53;;;;;;;11.85;100.00;100361.16;698744;28;1321;-64
2022/10/16 00:28:48;;;;;;;9.02;5.30;;;;;;;11.86;100.00;100354.16;698780;28;1067;-64
2022/10/16 00:29:09;;;;;;;8.50;5.32;;;;;;;11.92;100.00;100361.91;699656;28;1232;-64
2022/10/16 00:29:29;;;;;;;7.75;5.40;;;;;;;11.89;100.00;100357.59;700009;28;1308;-64
2022/10/16 00:29:52;;;;;;;10.00;5.47;;;;;;;11.90;100.00;100359.31;699703;28;1047;-65
2022/10/16 00:30:12;;;;;;;8.75;5.65;;;;;;;11.88;100.00;100358.47;698081;28;1043;-64
2022/10/16 00:30:32;;;;;;;8.30;5.60;;;;;;;11.87;100.00;100359.34;697426;28;1164;-64
2022/10/16 00:30:53;;;;;;;7.97;5.60;;;;;;;11.89;100.00;100356.72;697367;28;4323;-64
2022/10/16 00:31:14;;;;;;;7.93;5.20;;;;;;;11.88;100.00;100355.84;696053;28;940;-65
2022/10/16 00:31:35;;;;;;;9.18;5.60;;;;;;;11.90;100.00;100343.59;697320;28;1087;-64
2022/10/16 00:31:55;;;;;;;9.25;5.50;;;;;;;11.91;100.00;100344.47;697709;28;1064;-64
2022/10/16 00:32:15;;;;;;;8.50;5.57;;;;;;;11.94;100.00;100344.44;696930;28;891;-64
2022/10/16 00:32:36;;;;;;;8.77;5.60;;;;;;;11.98;100.00;100350.53;697143;28;1180;-64
2022/10/16 00:32:56;;;;;;;8.38;5.43;;;;;;;11.98;100.00;100345.28;698176;28;1032;-64
2022/10/16 00:33:16;;;;;;;8.30;5.33;;;;;;;12.06;100.00;100340.78;697827;28;1218;-64
2022/10/16 00:33:38;;;;;;;8.63;5.65;;;;;;;12.16;100.00;100337.13;696440;28;4387;-65
2022/10/16 00:34:00;;;;;;;8.65;5.68;;;;;;;12.20;100.00;100341.41;696905;28;1952;-64
2022/10/16 00:34:20;;;;;;;8.13;4.93;;;;;;;12.21;100.00;100339.66;697209;28;915;-64
2022/10/16 00:34:40;;;;;;;9.07;5.37;;;;;;;12.18;100.00;100337.94;697713;28;1383;-64
2022/10/16 00:35:03;;;;;;;8.23;5.10;;;;;;;12.13;100.00;100334.56;696697;28;1103;-65
2022/10/16 00:35:23;;;;;;;7.88;4.90;;;;;;;12.09;100.00;100338.13;695757;28;1281;-64
2022/10/16 00:35:44;;;;;;;6.70;4.90;;;;;;;12.12;100.00;100348.53;697528;28;1177;-64
2022/10/16 00:36:05;;;;;;;6.87;4.77;;;;;;;12.09;100.00;100341.59;697071;28;1457;-64
2022/10/16 00:36:27;;;;;;;8.32;5.00;;;;;;;12.07;100.00;100346.00;697459;28;1089;-64
2022/10/16 00:36:47;;;;;;;9.82;5.00;;;;;;;12.05;100.00;100345.16;696622;28;4442;-64
2022/10/16 00:37:07;;;;;;;7.72;4.88;;;;;;;12.05;100.00;100344.28;697632;28;1113;-64
2022/10/16 00:37:27;;;;;;;6.63;4.97;;;;;;;12.03;100.00;100338.19;697409;28;1157;-64
2022/10/16 00:37:48;;;;;;;7.27;5.10;;;;;;;12.01;100.00;100345.22;697325;28;1133;-64
2022/10/16 00:38:08;;;;;;;8.52;5.22;;;;;;;11.99;100.00;100341.75;696964;28;1165;-64
2022/10/16 00:38:29;;;;;;;8.37;5.47;;;;;;;11.96;100.00;100334.81;697707;28;1311;-63
2022/10/16 00:38:53;;;;;;;7.75;5.38;;;;;;;11.97;100.00;100335.69;698151;28;4987;-64
2022/10/16 00:39:14;;;;;;;9.30;5.20;;;;;;;11.98;100.00;100342.66;698063;28;999;-63
2022/10/16 00:39:34;;;;;;;9.70;5.00;;;;;;;11.93;100.00;100340.94;697078;28;1177;-64
2022/10/16 00:39:54;;;;;;;8.03;5.10;;;;;;;11.91;100.00;100337.47;700207;28;4508;-64
2022/10/16 00:40:15;;;;;;;8.70;5.60;;;;;;;11.91;100.00;100334.00;700616;28;1234;-64
2022/10/16 00:40:35;;;;;;;9.27;5.43;;;;;;;11.91;100.00;100339.25;699172;28;1142;-64
2022/10/16 00:40:56;;;;;;;9.75;5.50;;;;;;;11.88;100.00;100339.25;700597;28;1133;-64
2022/10/16 00:41:17;;;;;;;7.65;5.20;;;;;;;11.88;100.00;100341.88;700646;28;1146;-64
2022/10/16 00:41:37;;;;;;;7.23;5.00;;;;;;;11.91;100.00;100340.09;697859;28;1135;-64
2022/10/16 00:41:58;;;;;;;8.55;5.20;;;;;;;11.90;100.00;100340.13;697575;28;1020;-64
2022/10/16 00:42:18;;;;;;;8.13;5.20;;;;;;;11.88;100.00;100344.50;696405;28;1089;-64
2022/10/16 00:42:39;;;;;;;8.82;5.32;;;;;;;11.88;100.00;100340.16;697248;28;4313;-63
2022/10/16 00:43:00;;;;;;;9.70;5.20;;;;;;;11.85;100.00;100342.81;697589;28;1202;-64
2022/10/16 00:43:41;;;;;;;8.50;5.20;;;;;;;11.83;100.00;100344.56;697438;28;974;-64
2022/10/16 00:44:23;;;;;;;6.80;5.20;;;;;;;11.84;100.00;100343.69;697297;28;1142;-64
2022/10/16 00:44:52;;;;;;;9.93;5.10;;;;;;;11.81;100.00;100341.13;696450;28;2012;-64
2022/10/16 00:45:12;;;;;;;8.07;5.18;;;;;;;11.82;100.00;100339.38;697720;28;1002;-64
2022/10/16 00:45:32;;;;;;;8.27;5.00;;;;;;;11.80;100.00;100341.16;697132;28;1968;-65
2022/10/16 00:45:53;;;;;;;8.77;5.50;;;;;;;11.79;100.00;100340.28;696655;28;4379;-64
2022/10/16 00:46:25;;;;;;;8.00;5.20;;;;;;;11.81;100.00;100349.00;697614;28;1571;-64
2022/10/16 00:46:45;;;;;;;11.48;5.15;;;;;;;11.79;100.00;100340.28;697356;28;808;-64
2022/10/16 00:47:09;;;;;;;10.88;4.90;;;;;;;11.76;100.00;100340.31;697807;28;1090;-64
2022/10/16 00:47:42;;;;;;;8.65;5.10;;;;;;;11.76;100.00;100341.19;697049;28;1101;-64
2022/10/16 00:48:02;;;;;;;10.48;5.57;;;;;;;11.74;100.00;100336.84;698666;28;1063;-64
2022/10/16 00:48:22;;;;;;;9.23;5.50;;;;;;;11.74;100.00;100342.09;697756;28;1136;-64
2022/10/16 00:48:50;;;;;;;7.75;5.35;;;;;;;11.77;100.00;100342.06;695856;28;4558;-64
2022/10/16 00:49:16;;;;;;;7.65;4.80;;;;;;;11.78;100.00;100342.91;697676;28;942;-64
2022/10/16 00:49:36;;;;;;;7.65;5.00;;;;;;;11.76;100.00;100345.56;697868;28;1010;-64
2022/10/16 00:50:06;;;;;;;7.23;4.90;;;;;;;11.74;100.00;100340.34;699876;28;1118;-64
2022/10/16 00:50:33;;;;;;;7.40;4.80;;;;;;;11.81;100.00;100330.66;699761;28;1035;-64
2022/10/16 00:50:53;;;;;;;9.70;4.90;;;;;;;11.80;100.00;100342.00;699729;28;1094;-64
2022/10/16 00:51:14;;;;;;;9.73;4.50;;;;;;;11.75;100.00;100341.22;700823;28;1089;-64
2022/10/16 00:51:40;;;;;;;7.05;4.55;;;;;;;11.75;100.00;100342.09;699327;28;891;-64
2022/10/16 00:52:00;;;;;;;6.03;4.65;;;;;;;11.72;100.00;100347.34;696962;28;4826;-64
2022/10/16 00:52:21;;;;;;;7.13;4.80;;;;;;;11.72;100.00;100341.25;697803;28;1638;-64
2022/10/16 00:52:44;;;;;;;6.50;4.60;;;;;;;11.72;100.00;100338.63;698821;28;1130;-64
2022/10/16 00:53:04;;;;;;;7.28;4.80;;;;;;;11.70;100.00;100343.03;697161;28;992;-64
2022/10/16 00:53:25;;;;;;;7.83;5.00;;;;;;;11.68;100.00;100342.19;698590;28;1034;-64
2022/10/16 00:53:46;;;;;;;7.97;4.90;;;;;;;11.66;100.00;100336.97;698968;28;1272;-64
2022/10/16 00:54:15;;;;;;;7.28;4.88;;;;;;;11.66;100.00;100343.94;698484;28;1230;-64
2022/10/16 00:54:35;;;;;;;6.15;4.80;;;;;;;11.65;100.00;100337.00;697124;28;1427;-64
2022/10/16 00:54:57;;;;;;;7.00;4.70;;;;;;;11.66;100.00;100343.94;697391;28;4512;-64
2022/10/16 00:55:18;;;;;;;8.05;4.88;;;;;;;11.64;100.00;100337.88;696106;28;959;-64
2022/10/16 00:55:38;;;;;;;7.72;4.82;;;;;;;11.62;100.00;100344.91;696698;28;1251;-64
2022/10/16 00:55:59;;;;;;;7.65;4.90;;;;;;;11.62;100.00;100337.06;696797;28;1269;-64
2022/10/16 00:56:19;;;;;;;9.00;4.97;;;;;;;11.64;100.00;100340.50;697118;28;1069;-64
2022/10/16 00:56:41;;;;;;;8.18;5.10;;;;;;;11.64;100.00;100340.50;698736;28;1119;-64
2022/10/16 00:57:05;;;;;;;7.45;4.43;;;;;;;11.62;100.00;100337.91;698732;28;1192;-65
2022/10/16 00:57:26;;;;;;;8.50;4.65;;;;;;;11.61;100.00;100332.69;699348;28;1098;-64
2022/10/16 00:57:47;;;;;;;8.00;5.00;;;;;;;11.59;100.00;100330.97;699291;28;4512;-64
2022/10/16 00:58:08;;;;;;;7.22;4.85;;;;;;;11.61;100.00;100330.09;698013;28;1313;-64
2022/10/16 00:58:28;;;;;;;6.40;5.00;;;;;;;11.61;100.00;100332.69;697201;28;1225;-64
2022/10/16 00:58:49;;;;;;;6.60;5.15;;;;;;;11.61;100.00;100335.31;698065;28;1166;-64
2022/10/16 00:59:35;;;;;;;7.60;5.10;;;;;;;11.62;100.00;100331.81;697087;28;1072;-64
2022/10/16 00:59:56;;;;;;;6.70;4.70;;;;;;;11.60;100.00;100323.97;697936;28;1110;-65
2022/10/16 01:00:24;;;;;;;7.72;4.63;;;;;;;11.61;100.00;100322.22;696184;28;1062;-64
2022/10/16 01:00:44;;;;;;;7.50;4.80;;;;;;;11.63;100.00;100330.91;696246;28;4347;-64
2022/10/16 01:01:05;;;;;;;7.60;4.80;;;;;;;11.61;100.00;100328.31;697441;28;1003;-64
2022/10/16 01:01:25;;;;;;;7.00;4.53;;;;;;;11.59;100.00;100330.97;697529;28;1743;-64
2022/10/16 01:01:45;;;;;;;7.00;4.20;;;;;;;11.63;100.00;100325.69;697075;28;1086;-64
2022/10/16 01:02:09;;;;;;;6.95;4.35;;;;;;;11.67;100.00;100335.22;698231;28;1110;-64
2022/10/16 01:02:29;;;;;;;7.45;4.50;;;;;;;11.65;100.00;100332.63;697361;28;1244;-64
2022/10/16 01:02:59;;;;;;;6.15;4.53;;;;;;;11.62;100.00;100329.19;697114;28;876;-64
2022/10/16 01:03:32;;;;;;;6.30;4.30;;;;;;;11.60;100.00;100326.56;696143;28;1250;-64
2022/10/16 01:03:52;;;;;;;9.25;4.65;;;;;;;11.59;100.00;100328.34;697628;28;4402;-64
2022/10/16 01:04:13;;;;;;;8.65;4.60;;;;;;;11.59;100.00;100324.88;697710;28;908;-65
2022/10/16 01:04:43;;;;;;;7.27;4.50;;;;;;;11.61;100.00;100335.31;698366;28;1158;-64
2022/10/16 01:05:04;;;;;;;6.70;4.40;;;;;;;11.65;100.00;100327.38;697308;28;1225;-64
2022/10/16 01:05:43;;;;;;;6.85;4.30;;;;;;;11.63;100.00;100336.16;696307;28;1894;-64
2022/10/16 01:06:15;;;;;;;7.00;4.90;;;;;;;11.59;100.00;100330.97;697161;28;1294;-64
2022/10/16 01:07:04;;;;;;;7.93;4.78;;;;;;;11.59;100.00;100327.50;696837;28;1187;-64
2022/10/16 01:07:33;;;;;;;6.55;4.45;;;;;;;11.61;100.00;100328.31;694160;28;5213;-64
2022/10/16 01:08:18;;;;;;;6.82;4.28;;;;;;;11.62;100.00;100322.19;697821;28;1075;-65
2022/10/16 01:09:11;;;;;;;8.73;4.97;;;;;;;11.59;100.00;100333.59;696494;28;1130;-64
2022/10/16 01:09:40;;;;;;;6.50;4.20;;;;;;;11.64;100.00;100332.66;697550;28;1968;-64
2022/10/16 01:10:24;;;;;;;6.03;4.57;;;;;;;11.66;100.00;100341.34;696494;28;4753;-64
2022/10/16 01:11:27;;;;;;;7.00;4.40;;;;;;;11.58;100.00;100350.16;696576;28;971;-64
2022/10/16 01:11:50;;;;;;;6.57;4.30;;;;;;;11.58;100.00;100346.69;681818;28;1318;-64
2022/10/16 01:12:19;;;;;;;6.40;4.20;;;;;;;11.53;100.00;100349.38;681664;28;1268;-64
2022/10/16 01:13:00;;;;;;;7.85;4.68;;;;;;;11.50;100.00;100345.94;683008;28;4501;-64
2022/10/16 01:13:42;;;;;;;6.00;4.50;;;;;;;11.49;100.00;100350.31;684199;28;915;-64
2022/10/16 01:14:13;;;;;;;7.30;4.75;;;;;;;11.50;100.00;100343.31;687823;28;1211;-64
2022/10/16 01:14:47;;;;;;;8.45;4.60;;;;;;;11.49;100.00;100347.69;696142;28;1094;-64
2022/10/16 01:15:10;;;;;;;7.90;4.88;;;;;;;11.48;100.00;100345.97;696852;28;1297;-65
2022/10/16 01:15:40;;;;;;;7.53;4.47;;;;;;;11.51;100.00;100345.06;698576;28;1256;-64
2022/10/16 01:16:06;;;;;;;8.48;4.75;;;;;;;11.48;100.00;100339.84;697374;28;4690;-64
2022/10/16 01:16:37;;;;;;;6.97;4.50;;;;;;;11.49;100.00;100347.69;697579;28;1138;-64
2022/10/16 01:17:10;;;;;;;7.53;4.15;;;;;;;11.48;100.00;100348.56;695446;28;1063;-64
2022/10/16 01:17:42;;;;;;;6.78;4.50;;;;;;;11.49;100.00;100346.81;699843;28;1086;-64
2022/10/16 01:18:18;;;;;;;6.47;4.65;;;;;;;11.48;100.00;100340.72;700355;28;1158;-64
2022/10/16 01:18:57;;;;;;;6.93;4.70;;;;;;;11.47;100.00;100344.22;700079;28;4585;-64
2022/10/16 01:19:58;;;;;;;7.22;4.90;;;;;;;11.47;100.00;100338.97;698028;28;1139;-64
2022/10/16 01:20:27;;;;;;;5.75;4.50;;;;;;;11.47;100.00;100341.59;695763;28;947;-65
2022/10/16 01:20:58;;;;;;;6.18;4.20;;;;;;;11.50;100.00;100338.09;697192;28;1126;-64
2022/10/16 01:21:27;;;;;;;7.18;4.22;;;;;;;11.49;100.00;100338.97;696320;28;987;-64
2022/10/16 01:21:51;;;;;;;6.53;4.40;;;;;;;11.48;100.00;100332.88;696905;28;4861;-64
2022/10/16 01:22:12;;;;;;;6.93;4.40;;;;;;;11.49;100.00;100334.59;696689;28;1091;-64
2022/10/16 01:22:41;;;;;;;7.60;4.45;;;;;;;11.48;100.00;100335.50;697564;28;1129;-65
2022/10/16 01:23:38;;;;;;;6.25;4.30;;;;;;;11.57;100.00;100335.38;697867;28;1114;-64
2022/10/16 01:24:20;;;;;;;5.93;4.32;;;;;;;11.70;100.00;100345.63;693029;28;1301;-64
2022/10/16 01:24:48;;;;;;;7.80;4.57;;;;;;;11.69;100.00;100352.63;691317;28;4539;-64
2022/10/16 01:25:16;;;;;;;8.20;4.70;;;;;;;11.65;100.00;100352.72;697364;28;1253;-65
2022/10/16 01:25:49;;;;;;;9.43;4.50;;;;;;;11.66;100.00;100354.44;696550;28;1922;-65
2022/10/16 01:26:46;;;;;;;6.80;4.07;;;;;;;11.64;100.00;100350.97;697322;28;1234;-64
2022/10/16 01:27:18;;;;;;;8.90;4.45;;;;;;;11.58;100.00;100350.16;697087;28;1363;-68
2022/10/16 01:27:42;;;;;;;6.97;4.20;;;;;;;11.56;100.00;100346.72;694825;28;4390;-65
2022/10/16 01:28:08;;;;;;;7.10;4.43;;;;;;;11.54;100.00;100348.47;697801;28;1221;-64
2022/10/16 01:28:51;;;;;;;5.65;4.30;;;;;;;11.51;100.00;100355.53;695563;28;1138;-64
2022/10/16 01:29:20;;;;;;;7.35;4.80;;;;;;;11.50;100.00;100349.41;696582;28;1254;-65
2022/10/16 01:30:01;;;;;;;7.45;4.32;;;;;;;11.53;100.00;100354.63;696924;28;1094;-64
2022/10/16 01:30:30;;;;;;;9.32;4.57;;;;;;;11.51;100.00;100353.75;697414;28;1023;-64
2022/10/16 01:30:55;;;;;;;8.48;4.75;;;;;;;11.52;100.00;100357.22;696611;28;4373;-64
2022/10/16 01:31:19;;;;;;;8.18;4.65;;;;;;;11.54;100.00;100352.84;696747;28;1175;-64
2022/10/16 01:31:42;;;;;;;8.00;4.50;;;;;;;11.58;100.00;100355.41;695682;28;1067;-65
2022/10/16 01:32:34;;;;;;;5.60;4.07;;;;;;;11.60;100.00;100350.16;696314;28;1167;-64
2022/10/16 01:33:10;;;;;;;7.35;4.28;;;;;;;11.54;100.00;100358.94;696612;28;1573;-64
2022/10/16 01:33:41;;;;;;;7.20;4.47;;;;;;;11.55;100.00;100357.22;700105;28;1241;-64
2022/10/16 01:34:14;;;;;;;8.48;4.90;;;;;;;11.51;100.00;100350.28;699389;28;5120;-64
2022/10/16 01:34:40;;;;;;;6.43;4.30;;;;;;;11.48;100.00;100350.31;700248;28;1090;-64
2022/10/16 01:35:13;;;;;;;6.70;4.40;;;;;;;11.47;100.00;100348.59;700858;28;1082;-64
2022/10/16 01:35:42;;;;;;;7.22;4.40;;;;;;;11.50;100.00;100345.94;697491;28;1070;-64
2022/10/16 01:36:10;;;;;;;7.03;4.68;;;;;;;11.48;100.00;100345.06;697551;28;1038;-64
2022/10/16 01:36:47;;;;;;;7.03;4.72;;;;;;;11.47;100.00;100343.38;696385;28;1055;-64
2022/10/16 01:37:20;;;;;;;6.55;4.82;;;;;;;11.48;100.00;100337.22;697474;28;4918;-65
2022/10/16 01:37:46;;;;;;;8.10;4.40;;;;;;;11.52;100.00;100344.16;697948;28;1235;-64
2022/10/16 01:38:18;;;;;;;8.60;4.60;;;;;;;11.48;100.00;100340.72;696903;28;1091;-65
2022/10/16 01:38:40;;;;;;;8.80;4.57;;;;;;;11.48;100.00;100340.72;697373;28;1071;-64
2022/10/16 01:39:01;;;;;;;7.15;4.43;;;;;;;11.50;100.00;100341.56;697508;28;5455;-64
2022/10/16 01:39:29;;;;;;;6.50;4.35;;;;;;;11.48;100.00;100340.72;697203;28;1005;-64
2022/10/16 01:39:51;;;;;;;8.55;4.47;;;;;;;11.51;100.00;100345.06;696074;28;4531;-64
2022/10/16 01:40:15;;;;;;;8.60;4.40;;;;;;;11.48;100.00;100343.34;697459;28;975;-64
2022/10/16 01:40:39;;;;;;;6.78;4.35;;;;;;;11.45;100.00;100343.38;696885;28;1059;-65
2022/10/16 01:41:14;;;;;;;6.35;4.13;;;;;;;11.45;100.00;100340.78;696446;28;1045;-64
2022/10/16 01:41:40;;;;;;;5.70;4.20;;;;;;;11.49;100.00;100346.81;694684;28;1103;-65
2022/10/16 01:42:16;;;;;;;6.95;4.00;;;;;;;11.49;100.00;100339.84;692906;28;1100;-64
2022/10/16 01:42:44;;;;;;;5.78;4.25;;;;;;;11.51;100.00;100348.53;691973;28;1310;-64
2022/10/16 01:43:10;;;;;;;6.85;4.20;;;;;;;11.51;100.00;100343.28;692511;28;4998;-64
2022/10/16 01:43:36;;;;;;;7.32;4.03;;;;;;;11.55;100.00;100349.38;697648;28;1289;-64
2022/10/16 01:44:08;;;;;;;6.15;3.80;;;;;;;11.59;100.00;100348.44;696652;28;1079;-64
2022/10/16 01:44:32;;;;;;;6.85;3.90;;;;;;;11.59;100.00;100351.06;697851;28;1206;-64
2022/10/16 01:44:55;;;;;;;7.28;3.90;;;;;;;11.64;100.00;100353.59;697877;28;1165;-65
2022/10/16 01:45:19;;;;;;;6.53;4.00;;;;;;;11.65;100.00;100350.94;696450;28;988;-64
2022/10/16 01:45:42;;;;;;;6.90;4.00;;;;;;;11.65;100.00;100352.72;696442;28;4607;-64
2022/10/16 01:46:03;;;;;;;6.72;3.90;;;;;;;11.63;100.00;100354.47;696980;28;1142;-64
2022/10/16 01:46:24;;;;;;;5.63;3.90;;;;;;;11.63;100.00;100357.09;696792;28;1229;-64
2022/10/16 01:46:48;;;;;;;6.63;4.13;;;;;;;11.62;100.00;100352.78;696100;28;1086;-64
2022/10/16 01:47:10;;;;;;;6.15;3.90;;;;;;;11.63;100.00;100357.09;696768;28;1240;-64
2022/10/16 01:47:32;;;;;;;5.45;3.85;;;;;;;11.63;100.00;100357.09;697109;28;1204;-64
2022/10/16 01:47:53;;;;;;;6.18;3.92;;;;;;;11.63;100.00;100354.47;697105;28;1194;-64
2022/10/16 01:48:18;;;;;;;5.78;3.90;;;;;;;11.63;100.00;100357.97;694835;28;951;-64
2022/10/16 01:48:39;;;;;;;6.60;3.83;;;;;;;11.63;100.00;100350.13;696376;28;4499;-64
2022/10/16 01:49:03;;;;;;;6.53;4.05;;;;;;;11.66;100.00;100349.19;696664;28;1063;-64
2022/10/16 01:49:27;;;;;;;6.60;3.97;;;;;;;11.66;100.00;100350.06;696452;28;871;-64
2022/10/16 01:49:49;;;;;;;5.90;3.60;;;;;;;11.72;100.00;100349.13;698425;28;1039;-64
2022/10/16 01:50:10;;;;;;;6.20;3.70;;;;;;;11.74;100.00;100349.94;695226;28;1190;-64
2022/10/16 01:50:35;;;;;;;8.10;3.55;;;;;;;11.76;100.00;100353.41;697570;28;1183;-64
2022/10/16 01:51:04;;;;;;;7.47;3.70;;;;;;;11.82;100.00;100345.47;697986;28;1060;-64
2022/10/16 01:51:27;;;;;;;6.25;3.60;;;;;;;11.82;100.00;100350.69;697829;28;1007;-64
2022/10/16 01:51:52;;;;;;;5.63;3.40;;;;;;;11.90;100.00;100351.44;696937;28;4315;-64
2022/10/16 01:52:18;;;;;;;4.80;3.50;;;;;;;11.90;100.00;100346.22;693971;28;1101;-64
2022/10/16 01:52:41;;;;;;;5.70;3.72;;;;;;;11.89;100.00;100344.50;697033;28;1210;-64
2022/10/16 01:53:04;;;;;;;5.47;3.42;;;;;;;11.89;100.00;100344.50;697390;28;1408;-64
2022/10/16 01:53:26;;;;;;;7.18;3.60;;;;;;;11.89;100.00;100344.50;699810;28;1000;-64
2022/10/16 01:53:51;;;;;;;6.57;3.45;;;;;;;12.01;100.00;100345.22;697706;28;1107;-64
2022/10/16 01:54:16;;;;;;;6.32;3.58;;;;;;;12.07;100.00;100345.13;697490;28;1002;-64
2022/10/16 01:54:40;;;;;;;5.75;3.40;;;;;;;12.05;100.00;100353.00;696706;28;1532;-64
2022/10/16 01:55:03;;;;;;;6.20;3.20;;;;;;;12.02;100.00;100353.06;696908;28;4631;-65
2022/10/16 01:55:30;;;;;;;5.60;2.90;;;;;;;12.01;100.00;100355.72;697357;28;1071;-64
2022/10/16 01:55:55;;;;;;;6.32;3.20;;;;;;;12.00;100.00;100353.97;697873;28;1380;-65
2022/10/16 01:56:17;;;;;;;7.72;3.50;;;;;;;12.03;100.00;100353.91;697314;28;1258;-64
2022/10/16 01:56:39;;;;;;;5.90;3.33;;;;;;;12.02;100.00;100350.44;699968;28;1067;-64
2022/10/16 01:57:02;;;;;;;5.63;3.38;;;;;;;12.01;100.00;100345.22;699923;28;1061;-64
2022/10/16 01:57:25;;;;;;;5.80;3.17;;;;;;;12.00;100.00;100349.59;699680;28;1066;-64
2022/10/16 01:57:50;;;;;;;5.00;3.08;;;;;;;12.02;100.00;100352.22;699321;28;4386;-64